sensor_id;sensor_type;location;lat;lon;timestamp;P1;durP1;ratioP1;P2;durP2;ratioP2
71238;SDS011;61342;51.442;7.370;2022-07-29T00:00:40;6.97;;;3.30;;
71238;SDS011;61342;51.442;7.370;2022-07-29T00:01:41;9.52;;;3.55;;
71238;SDS011;61342;51.442;7.370;2022-07-29T00:02:43;8.50;;;3.60;;
71238;SDS011;61342;51.442;7.370;2022-07-29T00:03:43;7.13;;;3.80;;
71238;SDS011;61342;51.442;7.370;2022-07-29T00:04:46;8.87;;;3.80;;
71238;SDS011;61342;51.442;7.370;2022-07-29T00:05:46;9.82;;;4.00;;
71238;SDS011;61342;51.442;7.370;2022-07-29T00:06:47;10.07;;;3.40;;
71238;SDS011;61342;51.442;7.370;2022-07-29T00:07:47;9.50;;;4.47;;
71238;SDS011;61342;51.442;7.370;2022-07-29T00:08:48;10.93;;;3.90;;
71238;SDS011;61342;51.442;7.370;2022-07-29T00:09:48;10.47;;;3.93;;
71238;SDS011;61342;51.442;7.370;2022-07-29T00:10:48;8.75;;;3.60;;
71238;SDS011;61342;51.442;7.370;2022-07-29T00:11:49;9.57;;;4.00;;
71238;SDS011;61342;51.442;7.370;2022-07-29T00:12:49;7.17;;;4.20;;
71238;SDS011;61342;51.442;7.370;2022-07-29T00:13:49;13.57;;;3.87;;
71238;SDS011;61342;51.442;7.370;2022-07-29T00:14:50;7.57;;;3.63;;
71238;SDS011;61342;51.442;7.370;2022-07-29T00:15:50;6.90;;;3.47;;
71238;SDS011;61342;51.442;7.370;2022-07-29T00:16:51;6.50;;;3.40;;
71238;SDS011;61342;51.442;7.370;2022-07-29T00:17:51;7.33;;;3.40;;
71238;SDS011;61342;51.442;7.370;2022-07-29T00:18:52;8.20;;;3.60;;
71238;SDS011;61342;51.442;7.370;2022-07-29T00:19:52;10.43;;;3.47;;
71238;SDS011;61342;51.442;7.370;2022-07-29T00:20:53;8.00;;;3.10;;
71238;SDS011;61342;51.442;7.370;2022-07-29T00:21:53;4.80;;;2.80;;
71238;SDS011;61342;51.442;7.370;2022-07-29T00:22:54;7.27;;;3.07;;
71238;SDS011;61342;51.442;7.370;2022-07-29T00:23:54;5.80;;;2.95;;
71238;SDS011;61342;51.442;7.370;2022-07-29T00:24:55;7.47;;;2.97;;
71238;SDS011;61342;51.442;7.370;2022-07-29T00:25:55;4.67;;;2.70;;
71238;SDS011;61342;51.442;7.370;2022-07-29T00:26:55;7.10;;;2.80;;
71238;SDS011;61342;51.442;7.370;2022-07-29T00:27:56;6.63;;;2.50;;
71238;SDS011;61342;51.442;7.370;2022-07-29T00:28:57;5.47;;;2.73;;
71238;SDS011;61342;51.442;7.370;2022-07-29T00:29:59;8.47;;;3.13;;
71238;SDS011;61342;51.442;7.370;2022-07-29T00:30:59;5.97;;;2.90;;
71238;SDS011;61342;51.442;7.370;2022-07-29T00:32:00;6.10;;;2.10;;
71238;SDS011;61342;51.442;7.370;2022-07-29T00:33:00;5.43;;;2.23;;
71238;SDS011;61342;51.442;7.370;2022-07-29T00:34:01;10.43;;;2.47;;
71238;SDS011;61342;51.442;7.370;2022-07-29T00:35:02;8.03;;;2.50;;
71238;SDS011;61342;51.442;7.370;2022-07-29T00:36:21;5.63;;;2.50;;
71238;SDS011;61342;51.442;7.370;2022-07-29T00:37:22;8.10;;;2.47;;
71238;SDS011;61342;51.442;7.370;2022-07-29T00:38:23;3.57;;;2.40;;
71238;SDS011;61342;51.442;7.370;2022-07-29T00:39:24;5.80;;;2.30;;
71238;SDS011;61342;51.442;7.370;2022-07-29T00:40:24;7.27;;;2.20;;
71238;SDS011;61342;51.442;7.370;2022-07-29T00:41:24;10.50;;;2.50;;
71238;SDS011;61342;51.442;7.370;2022-07-29T00:42:25;7.87;;;3.00;;
71238;SDS011;61342;51.442;7.370;2022-07-29T00:43:25;5.50;;;1.90;;
71238;SDS011;61342;51.442;7.370;2022-07-29T00:44:27;6.40;;;2.07;;
71238;SDS011;61342;51.442;7.370;2022-07-29T00:45:27;8.73;;;2.27;;
71238;SDS011;61342;51.442;7.370;2022-07-29T00:46:28;7.30;;;2.23;;
71238;SDS011;61342;51.442;7.370;2022-07-29T00:47:28;4.53;;;1.83;;
71238;SDS011;61342;51.442;7.370;2022-07-29T00:48:28;6.83;;;1.97;;
71238;SDS011;61342;51.442;7.370;2022-07-29T00:49:29;7.77;;;1.97;;
71238;SDS011;61342;51.442;7.370;2022-07-29T00:50:30;4.60;;;1.50;;
71238;SDS011;61342;51.442;7.370;2022-07-29T00:51:31;7.63;;;2.30;;
71238;SDS011;61342;51.442;7.370;2022-07-29T00:52:32;5.30;;;2.20;;
71238;SDS011;61342;51.442;7.370;2022-07-29T00:53:36;5.50;;;2.10;;
71238;SDS011;61342;51.442;7.370;2022-07-29T00:54:38;7.07;;;2.40;;
71238;SDS011;61342;51.442;7.370;2022-07-29T00:55:40;7.73;;;2.37;;
71238;SDS011;61342;51.442;7.370;2022-07-29T00:56:40;8.10;;;2.00;;
71238;SDS011;61342;51.442;7.370;2022-07-29T00:57:41;4.23;;;2.20;;
71238;SDS011;61342;51.442;7.370;2022-07-29T00:58:42;9.97;;;2.07;;
71238;SDS011;61342;51.442;7.370;2022-07-29T00:59:43;9.43;;;1.80;;
71238;SDS011;61342;51.442;7.370;2022-07-29T01:00:44;3.60;;;2.03;;
71238;SDS011;61342;51.442;7.370;2022-07-29T01:01:45;4.77;;;1.90;;
71238;SDS011;61342;51.442;7.370;2022-07-29T01:02:46;6.20;;;2.17;;
71238;SDS011;61342;51.442;7.370;2022-07-29T01:03:50;7.43;;;2.23;;
71238;SDS011;61342;51.442;7.370;2022-07-29T01:04:50;8.43;;;2.10;;
71238;SDS011;61342;51.442;7.370;2022-07-29T01:05:51;4.20;;;2.03;;
71238;SDS011;61342;51.442;7.370;2022-07-29T01:06:52;9.03;;;2.50;;
71238;SDS011;61342;51.442;7.370;2022-07-29T01:07:56;6.40;;;2.00;;
71238;SDS011;61342;51.442;7.370;2022-07-29T01:08:58;9.07;;;2.20;;
71238;SDS011;61342;51.442;7.370;2022-07-29T01:09:59;4.60;;;1.90;;
71238;SDS011;61342;51.442;7.370;2022-07-29T01:11:01;6.43;;;1.73;;
71238;SDS011;61342;51.442;7.370;2022-07-29T01:12:02;4.90;;;1.73;;
71238;SDS011;61342;51.442;7.370;2022-07-29T01:13:04;8.80;;;3.10;;
71238;SDS011;61342;51.442;7.370;2022-07-29T01:14:06;3.03;;;1.80;;
71238;SDS011;61342;51.442;7.370;2022-07-29T01:15:07;7.20;;;2.00;;
71238;SDS011;61342;51.442;7.370;2022-07-29T01:16:13;3.20;;;2.00;;
71238;SDS011;61342;51.442;7.370;2022-07-29T01:18:46;11.03;;;2.00;;
71238;SDS011;61342;51.442;7.370;2022-07-29T01:22:35;7.43;;;1.53;;
71238;SDS011;61342;51.442;7.370;2022-07-29T01:24:20;6.40;;;1.70;;
71238;SDS011;61342;51.442;7.370;2022-07-29T01:29:54;7.20;;;2.23;;
71238;SDS011;61342;51.442;7.370;2022-07-29T01:30:56;2.33;;;1.70;;
71238;SDS011;61342;51.442;7.370;2022-07-29T01:32:41;11.07;;;2.20;;
71238;SDS011;61342;51.442;7.370;2022-07-29T01:33:25;6.13;;;1.90;;
71238;SDS011;61342;51.442;7.370;2022-07-29T01:34:54;4.53;;;1.70;;
71238;SDS011;61342;51.442;7.370;2022-07-29T01:35:54;8.30;;;1.90;;
71238;SDS011;61342;51.442;7.370;2022-07-29T01:37:03;5.63;;;1.93;;
71238;SDS011;61342;51.442;7.370;2022-07-29T01:38:10;7.17;;;1.97;;
71238;SDS011;61342;51.442;7.370;2022-07-29T01:39:16;4.20;;;2.07;;
71238;SDS011;61342;51.442;7.370;2022-07-29T01:40:25;10.03;;;2.83;;
71238;SDS011;61342;51.442;7.370;2022-07-29T01:41:31;4.80;;;2.10;;
71238;SDS011;61342;51.442;7.370;2022-07-29T01:42:54;8.63;;;2.10;;
71238;SDS011;61342;51.442;7.370;2022-07-29T01:43:57;7.53;;;1.93;;
71238;SDS011;61342;51.442;7.370;2022-07-29T01:46:26;7.70;;;2.13;;
71238;SDS011;61342;51.442;7.370;2022-07-29T01:47:33;5.10;;;2.03;;
71238;SDS011;61342;51.442;7.370;2022-07-29T01:49:41;6.23;;;2.23;;
71238;SDS011;61342;51.442;7.370;2022-07-29T01:50:50;8.73;;;2.40;;
71238;SDS011;61342;51.442;7.370;2022-07-29T01:52:07;4.37;;;2.00;;
71238;SDS011;61342;51.442;7.370;2022-07-29T01:53:14;4.63;;;1.80;;
71238;SDS011;61342;51.442;7.370;2022-07-29T01:55:50;6.23;;;2.30;;
71238;SDS011;61342;51.442;7.370;2022-07-29T01:56:53;3.80;;;1.93;;
71238;SDS011;61342;51.442;7.370;2022-07-29T01:57:56;3.93;;;2.13;;
71238;SDS011;61342;51.442;7.370;2022-07-29T01:58:59;5.90;;;2.23;;
71238;SDS011;61342;51.442;7.370;2022-07-29T02:00:02;9.03;;;2.00;;
71238;SDS011;61342;51.442;7.370;2022-07-29T02:01:04;2.63;;;1.80;;
71238;SDS011;61342;51.442;7.370;2022-07-29T02:02:06;4.77;;;2.03;;
71238;SDS011;61342;51.442;7.370;2022-07-29T02:03:11;8.43;;;1.97;;
71238;SDS011;61342;51.442;7.370;2022-07-29T02:04:12;6.00;;;1.83;;
71238;SDS011;61342;51.442;7.370;2022-07-29T02:05:15;6.00;;;2.00;;
71238;SDS011;61342;51.442;7.370;2022-07-29T02:06:19;5.27;;;1.77;;
71238;SDS011;61342;51.442;7.370;2022-07-29T02:07:23;5.97;;;1.77;;
71238;SDS011;61342;51.442;7.370;2022-07-29T02:08:25;3.33;;;1.70;;
71238;SDS011;61342;51.442;7.370;2022-07-29T02:09:28;8.40;;;2.10;;
71238;SDS011;61342;51.442;7.370;2022-07-29T02:10:32;3.40;;;1.80;;
71238;SDS011;61342;51.442;7.370;2022-07-29T02:11:34;2.97;;;1.60;;
71238;SDS011;61342;51.442;7.370;2022-07-29T02:12:36;7.50;;;2.10;;
71238;SDS011;61342;51.442;7.370;2022-07-29T02:13:37;7.37;;;2.10;;
71238;SDS011;61342;51.442;7.370;2022-07-29T02:14:40;3.70;;;1.80;;
71238;SDS011;61342;51.442;7.370;2022-07-29T02:15:45;4.83;;;2.10;;
71238;SDS011;61342;51.442;7.370;2022-07-29T02:16:48;2.60;;;1.97;;
71238;SDS011;61342;51.442;7.370;2022-07-29T02:17:56;6.50;;;1.80;;
71238;SDS011;61342;51.442;7.370;2022-07-29T02:19:00;11.10;;;2.53;;
71238;SDS011;61342;51.442;7.370;2022-07-29T02:20:03;7.17;;;2.33;;
71238;SDS011;61342;51.442;7.370;2022-07-29T02:21:05;5.60;;;1.90;;
71238;SDS011;61342;51.442;7.370;2022-07-29T02:22:05;4.53;;;1.90;;
71238;SDS011;61342;51.442;7.370;2022-07-29T02:23:07;4.43;;;1.87;;
71238;SDS011;61342;51.442;7.370;2022-07-29T02:24:14;5.93;;;1.80;;
71238;SDS011;61342;51.442;7.370;2022-07-29T02:25:17;6.43;;;2.00;;
71238;SDS011;61342;51.442;7.370;2022-07-29T02:26:22;4.93;;;2.00;;
71238;SDS011;61342;51.442;7.370;2022-07-29T02:27:24;7.00;;;1.90;;
71238;SDS011;61342;51.442;7.370;2022-07-29T02:28:27;4.47;;;2.10;;
71238;SDS011;61342;51.442;7.370;2022-07-29T02:29:29;4.70;;;1.80;;
71238;SDS011;61342;51.442;7.370;2022-07-29T02:30:32;2.97;;;1.77;;
71238;SDS011;61342;51.442;7.370;2022-07-29T02:31:34;3.87;;;1.97;;
71238;SDS011;61342;51.442;7.370;2022-07-29T02:32:36;5.93;;;2.00;;
71238;SDS011;61342;51.442;7.370;2022-07-29T02:33:38;6.47;;;2.00;;
71238;SDS011;61342;51.442;7.370;2022-07-29T02:34:40;6.57;;;2.00;;
71238;SDS011;61342;51.442;7.370;2022-07-29T02:35:43;8.23;;;1.83;;
71238;SDS011;61342;51.442;7.370;2022-07-29T02:36:46;6.30;;;2.30;;
71238;SDS011;61342;51.442;7.370;2022-07-29T02:37:48;4.67;;;1.93;;
71238;SDS011;61342;51.442;7.370;2022-07-29T02:39:10;4.23;;;2.03;;
71238;SDS011;61342;51.442;7.370;2022-07-29T02:40:13;7.23;;;2.47;;
71238;SDS011;61342;51.442;7.370;2022-07-29T02:41:16;6.10;;;2.40;;
71238;SDS011;61342;51.442;7.370;2022-07-29T02:42:21;4.10;;;2.17;;
71238;SDS011;61342;51.442;7.370;2022-07-29T02:43:22;6.27;;;2.70;;
71238;SDS011;61342;51.442;7.370;2022-07-29T02:44:25;7.97;;;2.60;;
71238;SDS011;61342;51.442;7.370;2022-07-29T02:45:27;6.67;;;2.50;;
71238;SDS011;61342;51.442;7.370;2022-07-29T02:46:32;4.43;;;2.20;;
71238;SDS011;61342;51.442;7.370;2022-07-29T02:47:42;5.90;;;2.57;;
71238;SDS011;61342;51.442;7.370;2022-07-29T02:48:53;6.70;;;2.50;;
71238;SDS011;61342;51.442;7.370;2022-07-29T02:50:00;5.47;;;2.20;;
71238;SDS011;61342;51.442;7.370;2022-07-29T02:51:06;4.67;;;2.33;;
71238;SDS011;61342;51.442;7.370;2022-07-29T02:53:22;9.50;;;3.33;;
71238;SDS011;61342;51.442;7.370;2022-07-29T02:54:33;7.77;;;2.30;;
71238;SDS011;61342;51.442;7.370;2022-07-29T02:55:49;4.93;;;2.23;;
71238;SDS011;61342;51.442;7.370;2022-07-29T02:56:57;9.93;;;2.50;;
71238;SDS011;61342;51.442;7.370;2022-07-29T02:58:01;3.23;;;2.00;;
71238;SDS011;61342;51.442;7.370;2022-07-29T02:59:06;3.60;;;2.03;;
71238;SDS011;61342;51.442;7.370;2022-07-29T03:00:10;4.67;;;2.20;;
71238;SDS011;61342;51.442;7.370;2022-07-29T03:01:16;4.83;;;2.10;;
71238;SDS011;61342;51.442;7.370;2022-07-29T03:02:21;5.03;;;2.13;;
71238;SDS011;61342;51.442;7.370;2022-07-29T03:03:22;4.17;;;2.07;;
71238;SDS011;61342;51.442;7.370;2022-07-29T03:04:28;4.73;;;1.87;;
71238;SDS011;61342;51.442;7.370;2022-07-29T03:05:30;6.23;;;2.60;;
71238;SDS011;61342;51.442;7.370;2022-07-29T03:06:31;6.33;;;1.90;;
71238;SDS011;61342;51.442;7.370;2022-07-29T03:07:34;7.63;;;2.10;;
71238;SDS011;61342;51.442;7.370;2022-07-29T03:08:37;4.93;;;1.80;;
71238;SDS011;61342;51.442;7.370;2022-07-29T03:09:37;5.60;;;1.97;;
71238;SDS011;61342;51.442;7.370;2022-07-29T03:10:43;6.83;;;2.00;;
71238;SDS011;61342;51.442;7.370;2022-07-29T03:11:45;8.53;;;2.30;;
71238;SDS011;61342;51.442;7.370;2022-07-29T03:12:46;5.70;;;2.17;;
71238;SDS011;61342;51.442;7.370;2022-07-29T03:13:48;5.60;;;1.90;;
71238;SDS011;61342;51.442;7.370;2022-07-29T03:14:48;8.47;;;2.20;;
71238;SDS011;61342;51.442;7.370;2022-07-29T03:15:49;6.93;;;2.43;;
71238;SDS011;61342;51.442;7.370;2022-07-29T03:16:50;7.33;;;2.10;;
71238;SDS011;61342;51.442;7.370;2022-07-29T03:17:51;6.93;;;2.13;;
71238;SDS011;61342;51.442;7.370;2022-07-29T03:18:52;5.27;;;1.67;;
71238;SDS011;61342;51.442;7.370;2022-07-29T03:19:54;2.57;;;1.83;;
71238;SDS011;61342;51.442;7.370;2022-07-29T03:20:54;4.93;;;2.00;;
71238;SDS011;61342;51.442;7.370;2022-07-29T03:21:56;4.87;;;1.67;;
71238;SDS011;61342;51.442;7.370;2022-07-29T03:22:57;6.13;;;1.73;;
71238;SDS011;61342;51.442;7.370;2022-07-29T03:23:58;5.23;;;2.23;;
71238;SDS011;61342;51.442;7.370;2022-07-29T03:25:03;6.80;;;2.03;;
71238;SDS011;61342;51.442;7.370;2022-07-29T03:26:07;6.33;;;2.60;;
71238;SDS011;61342;51.442;7.370;2022-07-29T03:27:08;5.80;;;2.00;;
71238;SDS011;61342;51.442;7.370;2022-07-29T03:28:08;9.13;;;2.30;;
71238;SDS011;61342;51.442;7.370;2022-07-29T03:29:11;3.93;;;2.10;;
71238;SDS011;61342;51.442;7.370;2022-07-29T03:30:12;5.87;;;2.07;;
71238;SDS011;61342;51.442;7.370;2022-07-29T03:31:13;6.17;;;2.63;;
71238;SDS011;61342;51.442;7.370;2022-07-29T03:32:14;5.27;;;2.67;;
71238;SDS011;61342;51.442;7.370;2022-07-29T03:33:14;6.57;;;2.40;;
71238;SDS011;61342;51.442;7.370;2022-07-29T03:34:15;3.97;;;2.07;;
71238;SDS011;61342;51.442;7.370;2022-07-29T03:35:15;7.77;;;2.80;;
71238;SDS011;61342;51.442;7.370;2022-07-29T03:36:19;7.20;;;2.53;;
71238;SDS011;61342;51.442;7.370;2022-07-29T03:37:19;9.77;;;2.80;;
71238;SDS011;61342;51.442;7.370;2022-07-29T03:38:20;7.77;;;2.70;;
71238;SDS011;61342;51.442;7.370;2022-07-29T03:39:25;6.80;;;2.87;;
71238;SDS011;61342;51.442;7.370;2022-07-29T03:40:38;10.77;;;2.87;;
71238;SDS011;61342;51.442;7.370;2022-07-29T03:41:43;7.83;;;2.60;;
71238;SDS011;61342;51.442;7.370;2022-07-29T03:42:45;6.40;;;2.40;;
71238;SDS011;61342;51.442;7.370;2022-07-29T03:43:48;6.90;;;2.67;;
71238;SDS011;61342;51.442;7.370;2022-07-29T03:44:51;6.57;;;2.23;;
71238;SDS011;61342;51.442;7.370;2022-07-29T03:45:54;8.83;;;2.47;;
71238;SDS011;61342;51.442;7.370;2022-07-29T03:46:57;4.70;;;2.67;;
71238;SDS011;61342;51.442;7.370;2022-07-29T03:48:03;9.00;;;2.60;;
71238;SDS011;61342;51.442;7.370;2022-07-29T03:49:07;9.73;;;2.43;;
71238;SDS011;61342;51.442;7.370;2022-07-29T03:50:10;4.30;;;2.13;;
71238;SDS011;61342;51.442;7.370;2022-07-29T03:51:13;7.20;;;2.33;;
71238;SDS011;61342;51.442;7.370;2022-07-29T03:52:14;4.30;;;2.20;;
71238;SDS011;61342;51.442;7.370;2022-07-29T03:53:15;4.10;;;2.50;;
71238;SDS011;61342;51.442;7.370;2022-07-29T03:54:15;4.43;;;2.20;;
71238;SDS011;61342;51.442;7.370;2022-07-29T03:55:16;4.70;;;2.30;;
71238;SDS011;61342;51.442;7.370;2022-07-29T03:56:16;4.77;;;1.97;;
71238;SDS011;61342;51.442;7.370;2022-07-29T03:57:23;6.33;;;2.33;;
71238;SDS011;61342;51.442;7.370;2022-07-29T03:58:28;5.17;;;2.47;;
71238;SDS011;61342;51.442;7.370;2022-07-29T03:59:32;9.60;;;2.87;;
71238;SDS011;61342;51.442;7.370;2022-07-29T04:00:34;4.30;;;2.10;;
71238;SDS011;61342;51.442;7.370;2022-07-29T04:01:36;3.87;;;2.07;;
71238;SDS011;61342;51.442;7.370;2022-07-29T04:02:38;6.80;;;2.60;;
71238;SDS011;61342;51.442;7.370;2022-07-29T04:03:39;7.70;;;2.50;;
71238;SDS011;61342;51.442;7.370;2022-07-29T04:04:40;7.57;;;3.00;;
71238;SDS011;61342;51.442;7.370;2022-07-29T04:05:40;8.50;;;2.63;;
71238;SDS011;61342;51.442;7.370;2022-07-29T04:06:42;9.57;;;3.20;;
71238;SDS011;61342;51.442;7.370;2022-07-29T04:07:47;9.80;;;3.00;;
71238;SDS011;61342;51.442;7.370;2022-07-29T04:08:48;10.17;;;3.17;;
71238;SDS011;61342;51.442;7.370;2022-07-29T04:09:48;8.70;;;2.20;;
71238;SDS011;61342;51.442;7.370;2022-07-29T04:10:49;10.90;;;2.40;;
71238;SDS011;61342;51.442;7.370;2022-07-29T04:11:49;5.27;;;2.03;;
71238;SDS011;61342;51.442;7.370;2022-07-29T04:12:50;6.53;;;2.37;;
71238;SDS011;61342;51.442;7.370;2022-07-29T04:13:50;5.10;;;2.20;;
71238;SDS011;61342;51.442;7.370;2022-07-29T04:14:51;6.70;;;2.53;;
71238;SDS011;61342;51.442;7.370;2022-07-29T04:15:51;5.03;;;2.30;;
71238;SDS011;61342;51.442;7.370;2022-07-29T04:16:51;6.17;;;2.20;;
71238;SDS011;61342;51.442;7.370;2022-07-29T04:17:52;4.07;;;1.97;;
71238;SDS011;61342;51.442;7.370;2022-07-29T04:18:53;4.30;;;2.20;;
71238;SDS011;61342;51.442;7.370;2022-07-29T04:19:53;6.70;;;2.17;;
71238;SDS011;61342;51.442;7.370;2022-07-29T04:20:53;9.20;;;2.50;;
71238;SDS011;61342;51.442;7.370;2022-07-29T04:21:54;5.13;;;2.30;;
71238;SDS011;61342;51.442;7.370;2022-07-29T04:22:54;7.83;;;2.10;;
71238;SDS011;61342;51.442;7.370;2022-07-29T04:23:55;6.27;;;2.10;;
71238;SDS011;61342;51.442;7.370;2022-07-29T04:24:55;8.00;;;2.17;;
71238;SDS011;61342;51.442;7.370;2022-07-29T04:25:56;5.87;;;2.20;;
71238;SDS011;61342;51.442;7.370;2022-07-29T04:26:56;5.03;;;2.43;;
71238;SDS011;61342;51.442;7.370;2022-07-29T04:27:56;7.97;;;2.30;;
71238;SDS011;61342;51.442;7.370;2022-07-29T04:29:03;5.40;;;2.40;;
71238;SDS011;61342;51.442;7.370;2022-07-29T04:30:03;5.40;;;2.30;;
71238;SDS011;61342;51.442;7.370;2022-07-29T04:31:05;5.67;;;2.27;;
71238;SDS011;61342;51.442;7.370;2022-07-29T04:32:05;4.90;;;1.90;;
71238;SDS011;61342;51.442;7.370;2022-07-29T04:33:06;7.60;;;2.30;;
71238;SDS011;61342;51.442;7.370;2022-07-29T04:34:07;11.43;;;2.27;;
71238;SDS011;61342;51.442;7.370;2022-07-29T04:35:09;7.23;;;2.50;;
71238;SDS011;61342;51.442;7.370;2022-07-29T04:36:09;4.30;;;2.03;;
71238;SDS011;61342;51.442;7.370;2022-07-29T04:37:11;9.20;;;2.20;;
71238;SDS011;61342;51.442;7.370;2022-07-29T04:38:11;7.50;;;2.30;;
71238;SDS011;61342;51.442;7.370;2022-07-29T04:39:11;5.73;;;2.10;;
71238;SDS011;61342;51.442;7.370;2022-07-29T04:40:15;3.70;;;2.00;;
71238;SDS011;61342;51.442;7.370;2022-07-29T04:41:15;14.17;;;3.20;;
71238;SDS011;61342;51.442;7.370;2022-07-29T04:42:16;8.13;;;2.10;;
71238;SDS011;61342;51.442;7.370;2022-07-29T04:43:16;9.40;;;2.20;;
71238;SDS011;61342;51.442;7.370;2022-07-29T04:44:16;13.40;;;2.20;;
71238;SDS011;61342;51.442;7.370;2022-07-29T04:45:17;7.63;;;2.20;;
71238;SDS011;61342;51.442;7.370;2022-07-29T04:46:17;6.53;;;2.10;;
71238;SDS011;61342;51.442;7.370;2022-07-29T04:47:18;7.37;;;2.00;;
71238;SDS011;61342;51.442;7.370;2022-07-29T04:48:18;5.93;;;2.70;;
71238;SDS011;61342;51.442;7.370;2022-07-29T04:49:18;7.33;;;2.87;;
71238;SDS011;61342;51.442;7.370;2022-07-29T04:50:19;7.23;;;2.37;;
71238;SDS011;61342;51.442;7.370;2022-07-29T04:51:19;9.60;;;2.33;;
71238;SDS011;61342;51.442;7.370;2022-07-29T04:52:19;7.27;;;2.30;;
71238;SDS011;61342;51.442;7.370;2022-07-29T04:53:20;6.83;;;2.30;;
71238;SDS011;61342;51.442;7.370;2022-07-29T04:54:20;3.50;;;2.10;;
71238;SDS011;61342;51.442;7.370;2022-07-29T04:55:20;4.70;;;2.27;;
71238;SDS011;61342;51.442;7.370;2022-07-29T04:56:21;4.37;;;2.30;;
71238;SDS011;61342;51.442;7.370;2022-07-29T04:57:21;4.30;;;2.30;;
71238;SDS011;61342;51.442;7.370;2022-07-29T04:58:22;9.13;;;2.20;;
71238;SDS011;61342;51.442;7.370;2022-07-29T04:59:23;5.93;;;2.20;;
71238;SDS011;61342;51.442;7.370;2022-07-29T05:00:24;6.47;;;2.27;;
71238;SDS011;61342;51.442;7.370;2022-07-29T05:01:25;4.27;;;2.20;;
71238;SDS011;61342;51.442;7.370;2022-07-29T05:02:25;9.37;;;2.30;;
71238;SDS011;61342;51.442;7.370;2022-07-29T05:03:26;6.13;;;2.10;;
71238;SDS011;61342;51.442;7.370;2022-07-29T05:04:26;7.93;;;2.40;;
71238;SDS011;61342;51.442;7.370;2022-07-29T05:05:26;6.97;;;2.30;;
71238;SDS011;61342;51.442;7.370;2022-07-29T05:06:27;10.37;;;2.33;;
71238;SDS011;61342;51.442;7.370;2022-07-29T05:07:27;6.03;;;2.40;;
71238;SDS011;61342;51.442;7.370;2022-07-29T05:08:27;9.50;;;2.40;;
71238;SDS011;61342;51.442;7.370;2022-07-29T05:09:28;4.03;;;2.80;;
71238;SDS011;61342;51.442;7.370;2022-07-29T05:10:28;7.53;;;2.50;;
71238;SDS011;61342;51.442;7.370;2022-07-29T05:11:29;8.77;;;2.80;;
71238;SDS011;61342;51.442;7.370;2022-07-29T05:12:29;7.57;;;2.60;;
71238;SDS011;61342;51.442;7.370;2022-07-29T05:13:30;6.47;;;2.73;;
71238;SDS011;61342;51.442;7.370;2022-07-29T05:14:30;7.03;;;3.00;;
71238;SDS011;61342;51.442;7.370;2022-07-29T05:15:31;4.20;;;2.50;;
71238;SDS011;61342;51.442;7.370;2022-07-29T05:16:31;7.60;;;2.40;;
71238;SDS011;61342;51.442;7.370;2022-07-29T05:17:31;5.80;;;2.57;;
71238;SDS011;61342;51.442;7.370;2022-07-29T05:18:32;10.03;;;2.93;;
71238;SDS011;61342;51.442;7.370;2022-07-29T05:19:32;6.07;;;2.53;;
71238;SDS011;61342;51.442;7.370;2022-07-29T05:20:33;9.80;;;2.40;;
71238;SDS011;61342;51.442;7.370;2022-07-29T05:21:34;8.00;;;3.10;;
71238;SDS011;61342;51.442;7.370;2022-07-29T05:22:35;9.63;;;2.87;;
71238;SDS011;61342;51.442;7.370;2022-07-29T05:23:35;7.23;;;2.90;;
71238;SDS011;61342;51.442;7.370;2022-07-29T05:24:36;7.20;;;2.70;;
71238;SDS011;61342;51.442;7.370;2022-07-29T05:25:37;4.93;;;2.50;;
71238;SDS011;61342;51.442;7.370;2022-07-29T05:26:37;5.60;;;2.40;;
71238;SDS011;61342;51.442;7.370;2022-07-29T05:27:38;8.77;;;2.73;;
71238;SDS011;61342;51.442;7.370;2022-07-29T05:28:39;5.57;;;2.60;;
71238;SDS011;61342;51.442;7.370;2022-07-29T05:29:39;8.57;;;2.60;;
71238;SDS011;61342;51.442;7.370;2022-07-29T05:30:40;4.73;;;2.47;;
71238;SDS011;61342;51.442;7.370;2022-07-29T05:31:40;8.60;;;2.50;;
71238;SDS011;61342;51.442;7.370;2022-07-29T05:32:41;8.37;;;2.37;;
71238;SDS011;61342;51.442;7.370;2022-07-29T05:33:41;6.07;;;2.67;;
71238;SDS011;61342;51.442;7.370;2022-07-29T05:34:41;6.93;;;2.80;;
71238;SDS011;61342;51.442;7.370;2022-07-29T05:35:42;7.03;;;2.57;;
71238;SDS011;61342;51.442;7.370;2022-07-29T05:36:42;5.63;;;2.43;;
71238;SDS011;61342;51.442;7.370;2022-07-29T05:37:43;7.03;;;2.70;;
71238;SDS011;61342;51.442;7.370;2022-07-29T05:38:43;7.73;;;3.10;;
71238;SDS011;61342;51.442;7.370;2022-07-29T05:39:43;6.70;;;3.30;;
71238;SDS011;61342;51.442;7.370;2022-07-29T05:40:44;7.77;;;3.10;;
71238;SDS011;61342;51.442;7.370;2022-07-29T05:41:44;6.67;;;3.33;;
71238;SDS011;61342;51.442;7.370;2022-07-29T05:42:45;3.57;;;2.60;;
71238;SDS011;61342;51.442;7.370;2022-07-29T05:43:49;6.33;;;2.87;;
71238;SDS011;61342;51.442;7.370;2022-07-29T05:44:49;6.97;;;2.70;;
71238;SDS011;61342;51.442;7.370;2022-07-29T05:45:49;8.50;;;2.60;;
71238;SDS011;61342;51.442;7.370;2022-07-29T05:46:52;4.03;;;2.17;;
71238;SDS011;61342;51.442;7.370;2022-07-29T05:49:14;5.63;;;2.33;;
71238;SDS011;61342;51.442;7.370;2022-07-29T05:50:14;7.80;;;2.77;;
71238;SDS011;61342;51.442;7.370;2022-07-29T05:52:58;4.50;;;2.63;;
71238;SDS011;61342;51.442;7.370;2022-07-29T05:53:59;3.97;;;2.20;;
71238;SDS011;61342;51.442;7.370;2022-07-29T05:54:59;6.90;;;2.77;;
71238;SDS011;61342;51.442;7.370;2022-07-29T05:56:03;6.30;;;2.90;;
71238;SDS011;61342;51.442;7.370;2022-07-29T05:57:14;5.13;;;2.37;;
71238;SDS011;61342;51.442;7.370;2022-07-29T05:59:09;7.63;;;3.00;;
71238;SDS011;61342;51.442;7.370;2022-07-29T06:04:47;4.20;;;2.57;;
71238;SDS011;61342;51.442;7.370;2022-07-29T06:11:16;4.53;;;2.90;;
71238;SDS011;61342;51.442;7.370;2022-07-29T06:12:50;4.00;;;2.60;;
71238;SDS011;61342;51.442;7.370;2022-07-29T06:13:50;5.57;;;3.13;;
71238;SDS011;61342;51.442;7.370;2022-07-29T06:14:50;5.07;;;2.97;;
71238;SDS011;61342;51.442;7.370;2022-07-29T06:15:51;5.67;;;2.70;;
71238;SDS011;61342;51.442;7.370;2022-07-29T06:16:51;7.40;;;2.90;;
71238;SDS011;61342;51.442;7.370;2022-07-29T06:17:52;6.60;;;2.83;;
71238;SDS011;61342;51.442;7.370;2022-07-29T06:18:53;6.33;;;3.37;;
71238;SDS011;61342;51.442;7.370;2022-07-29T06:19:53;5.47;;;3.30;;
71238;SDS011;61342;51.442;7.370;2022-07-29T06:20:54;6.63;;;2.70;;
71238;SDS011;61342;51.442;7.370;2022-07-29T06:21:54;4.50;;;2.60;;
71238;SDS011;61342;51.442;7.370;2022-07-29T06:22:55;6.87;;;3.50;;
71238;SDS011;61342;51.442;7.370;2022-07-29T06:23:55;8.10;;;2.90;;
71238;SDS011;61342;51.442;7.370;2022-07-29T06:24:56;8.07;;;3.50;;
71238;SDS011;61342;51.442;7.370;2022-07-29T06:25:56;7.97;;;3.10;;
71238;SDS011;61342;51.442;7.370;2022-07-29T06:26:56;5.47;;;2.93;;
71238;SDS011;61342;51.442;7.370;2022-07-29T06:27:57;4.97;;;2.90;;
71238;SDS011;61342;51.442;7.370;2022-07-29T06:28:58;6.67;;;2.70;;
71238;SDS011;61342;51.442;7.370;2022-07-29T06:30:04;5.20;;;2.83;;
71238;SDS011;61342;51.442;7.370;2022-07-29T06:31:06;7.53;;;2.53;;
71238;SDS011;61342;51.442;7.370;2022-07-29T06:32:07;5.07;;;2.60;;
71238;SDS011;61342;51.442;7.370;2022-07-29T06:33:09;6.17;;;2.60;;
71238;SDS011;61342;51.442;7.370;2022-07-29T06:34:09;4.30;;;2.60;;
71238;SDS011;61342;51.442;7.370;2022-07-29T06:35:09;8.70;;;2.83;;
71238;SDS011;61342;51.442;7.370;2022-07-29T06:36:10;7.30;;;2.60;;
71238;SDS011;61342;51.442;7.370;2022-07-29T06:37:10;7.50;;;2.90;;
71238;SDS011;61342;51.442;7.370;2022-07-29T06:38:11;6.67;;;3.17;;
71238;SDS011;61342;51.442;7.370;2022-07-29T06:39:12;6.47;;;2.70;;
71238;SDS011;61342;51.442;7.370;2022-07-29T06:40:12;5.03;;;2.80;;
71238;SDS011;61342;51.442;7.370;2022-07-29T06:41:32;6.90;;;3.03;;
71238;SDS011;61342;51.442;7.370;2022-07-29T06:42:32;6.53;;;2.67;;
71238;SDS011;61342;51.442;7.370;2022-07-29T06:43:36;5.17;;;2.57;;
71238;SDS011;61342;51.442;7.370;2022-07-29T06:44:38;7.53;;;2.63;;